Time;durP1;ratioP1;P1;durP2;ratioP2;P2;SDS_P1;SDS_P2;PMS_P1;PMS_P2;Temp;Humidity;BMP_temperature;BMP_pressure;BME280_temperature;BME280_humidity;BME280_pressure;Samples;Min_cycle;Max_cycle;Signal;HPM_P1;HPM_P2
2022/03/20 00:00:34;;;;;;;;;;;3.50;99.90;;;2.81;65.34;98307.75;5000292;28;19945;-35
2022/03/20 00:03:04;;;;;;;;;;;3.50;99.90;;;2.79;64.82;98309.47;5000792;28;19918;-36
2022/03/20 00:05:29;;;;;;;;;;;3.50;99.90;;;2.78;65.60;98306.00;4984249;28;19913;-37
2022/03/20 00:07:55;;;;;;;;;;;3.50;99.90;;;2.76;64.91;98304.22;5000645;28;20390;-36
2022/03/20 00:10:20;;;;;;;;;;;3.50;99.90;;;2.57;65.50;98269.34;4998203;28;20911;-36
2022/03/20 00:12:48;;;;;;;;;;;3.50;99.90;;;2.75;65.85;98298.16;4999793;28;19909;-35
2022/03/20 00:15:14;;;;;;;;;;;3.50;99.90;;;2.75;65.41;98299.91;5001969;28;20328;-36
2022/03/20 00:17:40;;;;;;;;;;;3.50;99.90;;;2.70;65.58;98293.78;4999636;28;19917;-35
2022/03/20 00:20:06;;;;;;;;;;;3.50;99.90;;;2.74;65.08;98298.13;4999456;28;19956;-40
2022/03/20 00:22:34;;;;;;;;;;;3.50;99.90;;;2.77;64.99;98300.78;5001643;28;19910;-38
2022/03/20 00:24:59;;;;;;;;;;;3.50;99.90;;;2.73;64.47;98297.28;4998630;28;19931;-38
2022/03/20 00:27:26;;;;;;;;;;;3.50;99.90;;;2.74;64.43;98299.00;5000387;28;19914;-36
2022/03/20 00:29:51;;;;;;;;;;;3.50;99.90;;;2.74;63.98;98291.19;4999088;28;19945;-34
2022/03/20 00:32:19;;;;;;;;;;;3.50;99.90;;;2.75;64.39;98286.88;4999742;28;20294;-37
2022/03/20 00:34:45;;;;;;;;;;;3.50;99.90;;;2.75;64.46;98284.25;4998202;28;20273;-36
2022/03/20 00:37:11;;;;;;;;;;;3.50;99.90;;;2.72;64.46;98287.69;4999175;28;19918;-40
2022/03/20 00:39:36;;;;;;;;;;;3.50;99.90;;;2.71;64.99;98285.97;5000019;28;20286;-38
2022/03/20 00:42:02;;;;;;;;;;;3.50;99.90;;;2.66;65.42;98280.72;4999293;28;19918;-38
2022/03/20 00:44:28;;;;;;;;;;;3.50;99.90;;;2.70;65.93;98292.03;5000317;28;19917;-38
2022/03/20 00:46:53;;;;;;;;;;;3.50;99.90;;;2.66;66.95;98283.31;4998338;28;20239;-36
2022/03/20 00:49:21;;;;;;;;;;;3.40;99.90;;;2.65;66.47;98285.91;5001208;28;19921;-40
2022/03/20 00:51:47;;;;;;;;;;;3.40;99.90;;;2.63;66.80;98285.03;4998613;28;19921;-37
2022/03/20 00:54:13;;;;;;;;;;;3.40;99.90;;;2.61;67.36;98273.72;4999397;28;19968;-40
2022/03/20 00:56:38;;;;;;;;;;;3.40;99.90;;;2.53;68.64;98273.66;4998388;28;19972;-38
2022/03/20 00:59:04;;;;;;;;;;;3.40;99.90;;;2.57;68.64;98278.03;4999680;28;19994;-37
2022/03/20 01:01:31;;;;;;;;;;;3.40;99.90;;;2.55;68.48;98279.75;4999112;28;19913;-41
2022/03/20 01:03:56;;;;;;;;;;;3.40;99.90;;;2.47;69.04;98269.25;5000121;28;19944;-37
2022/03/20 01:06:22;;;;;;;;;;;3.30;99.90;;;2.33;68.77;98250.03;4998687;28;19921;-36
2022/03/20 01:08:49;;;;;;;;;;;3.30;99.90;;;2.47;68.68;98266.63;4996734;28;20301;-41
2022/03/20 01:11:15;;;;;;;;;;;3.30;99.90;;;2.47;69.13;98274.44;4992887;28;19927;-34
2022/03/20 01:13:41;;;;;;;;;;;3.30;99.90;;;2.47;70.11;98279.66;4993876;28;19999;-39
2022/03/20 01:16:07;;;;;;;;;;;3.30;99.90;;;2.47;70.86;98274.44;4995324;28;19917;-39
2022/03/20 01:18:33;;;;;;;;;;;3.30;99.90;;;2.45;71.08;98270.97;4997782;28;19921;-38
2022/03/20 01:20:58;;;;;;;;;;;3.20;99.90;;;2.42;70.76;98263.16;5000470;28;19968;-37
2022/03/20 01:23:24;;;;;;;;;;;3.20;99.90;;;2.43;70.75;98262.28;5002127;28;19920;-37
2022/03/20 01:25:51;;;;;;;;;;;3.20;99.90;;;2.41;70.98;98264.00;5001954;28;19921;-38
2022/03/20 01:28:17;;;;;;;;;;;3.20;99.90;;;2.30;69.14;98265.63;4997503;28;19924;-38
2022/03/20 01:30:44;;;;;;;;;;;3.10;99.90;;;2.29;69.66;98259.53;4998920;28;19917;-37
2022/03/20 01:33:09;;;;;;;;;;;3.20;99.90;;;2.33;70.49;98255.22;5000875;28;19936;-39
2022/03/20 01:35:35;;;;;;;;;;;3.10;99.90;;;2.32;72.43;98261.31;4996981;28;19921;-39
2022/03/20 01:38:02;;;;;;;;;;;3.10;99.90;;;2.25;72.21;98249.94;4999631;28;20577;-36
2022/03/20 01:40:28;;;;;;;;;;;3.10;99.90;;;2.27;72.22;98250.84;4999825;28;19992;-42
2022/03/20 01:42:54;;;;;;;;;;;3.10;99.90;;;2.27;72.27;98252.56;5004631;28;19917;-39
2022/03/20 01:45:22;;;;;;;;;;;3.00;99.90;;;2.25;72.33;98247.34;5001305;28;19924;-39
2022/03/20 01:47:49;;;;;;;;;;;3.00;99.90;;;2.25;71.44;98249.09;5001707;28;19932;-41
2022/03/20 01:50:26;;;;;;;;;;;3.00;99.90;;;2.24;72.15;98247.31;5001728;28;20052;-39
2022/03/20 01:52:53;;;;;;;;;;;3.00;99.90;;;2.23;71.81;98250.81;5000828;28;19939;-38
2022/03/20 01:55:21;;;;;;;;;;;3.00;99.90;;;2.24;72.42;98239.53;4994291;28;19932;-38
2022/03/20 01:57:47;;;;;;;;;;;3.00;99.90;;;2.24;73.51;98236.91;4998414;28;20472;-37
2022/03/20 02:00:16;;;;;;;;;;;3.00;99.90;;;2.23;74.08;98233.44;4994759;28;19921;-38
2022/03/20 02:02:41;;;;;;;;;;;3.00;99.90;;;2.25;72.20;98228.28;4996926;28;19917;-38
2022/03/20 02:05:09;;;;;;;;;;;3.00;99.90;;;2.23;72.48;98243.88;4997260;28;20286;-39
2022/03/20 02:07:35;;;;;;;;;;;3.00;99.90;;;2.25;72.60;98230.88;4997714;28;20461;-40
2022/03/20 02:10:01;;;;;;;;;;;3.00;99.90;;;2.19;73.11;98221.28;4996969;28;19919;-40
2022/03/20 02:12:28;;;;;;;;;;;3.00;99.90;;;2.22;73.40;98234.28;5000339;28;19921;-38
2022/03/20 02:14:55;;;;;;;;;;;3.00;99.90;;;2.20;73.01;98230.81;5001675;28;20375;-37
2022/03/20 02:17:21;;;;;;;;;;;3.00;99.90;;;2.20;73.18;98229.94;4997813;28;19925;-38
2022/03/20 02:19:47;;;;;;;;;;;3.00;99.90;;;2.22;73.94;98236.03;4982003;28;20150;-40
2022/03/20 02:22:13;;;;;;;;;;;3.00;99.90;;;2.21;74.86;98229.97;4997847;28;19925;-39
2022/03/20 02:24:41;;;;;;;;;;;3.00;99.90;;;2.20;74.36;98223.00;4998187;28;19913;-36
2022/03/20 02:27:17;;;;;;;;;;;3.00;99.90;;;2.22;74.98;98225.63;4997040;28;19983;-35
2022/03/20 02:29:44;;;;;;;;;;;3.00;99.90;;;2.24;75.32;98222.19;4997381;28;19964;-40
2022/03/20 02:32:12;;;;;;;;;;;3.00;99.90;;;2.21;75.37;98200.47;4982277;28;20338;-40
2022/03/20 02:34:39;;;;;;;;;;;3.00;99.90;;;2.28;76.37;98215.28;5000294;28;19921;-39
2022/03/20 02:37:05;;;;;;;;;;;3.10;99.90;;;2.30;77.60;98213.56;4997465;28;19932;-36
2022/03/20 02:39:31;;;;;;;;;;;3.10;99.90;;;2.32;77.73;98211.84;4996573;28;19913;-41
2022/03/20 02:42:00;;;;;;;;;;;3.10;99.90;;;2.28;78.39;98199.66;4997313;28;19974;-38
2022/03/20 02:45:03;;;;;;;;;;;3.10;99.90;;;2.29;78.21;98199.66;4999342;28;20290;-39
2022/03/20 02:47:30;;;;;;;;;;;3.10;99.90;;;2.28;78.08;98208.34;4997552;28;19935;-37
2022/03/20 02:49:59;;;;;;;;;;;3.10;99.90;;;2.29;78.44;98207.47;4982033;28;19921;-38
2022/03/20 02:52:41;;;;;;;;;;;3.10;99.90;;;2.21;77.79;98192.66;4999350;28;19975;-37
2022/03/20 02:55:08;;;;;;;;;;;3.00;99.90;;;2.28;77.56;98212.69;5000331;28;19981;-36
2022/03/20 02:57:34;;;;;;;;;;;3.00;99.90;;;2.29;77.77;98206.59;4998688;28;19922;-36
2022/03/20 03:00:04;;;;;;;;;;;3.00;99.90;;;2.30;77.59;98213.56;4994440;28;19921;-38
2022/03/20 03:02:33;;;;;;;;;;;3.10;99.90;;;2.28;77.49;98200.53;4998051;28;20004;-39
2022/03/20 03:04:59;;;;;;;;;;;3.10;99.90;;;2.28;76.66;98197.94;5011443;28;19913;-37
2022/03/20 03:07:31;;;;;;;;;;;3.10;99.90;;;2.32;77.74;98195.38;5000171;28;19931;-37
2022/03/20 03:12:42;;;;;;;;;;;3.10;99.90;;;2.29;79.41;98206.59;5001117;28;19967;-37
2022/03/20 03:15:21;;;;;;;;;;;3.10;99.90;;;2.28;77.92;98207.47;4997089;28;19913;-36
2022/03/20 03:17:48;;;;;;;;;;;3.10;99.90;;;2.29;78.79;98204.88;4997070;28;20366;-35
2022/03/20 03:20:13;;;;;;;;;;;3.10;99.90;;;2.30;79.70;98205.75;4979807;28;20578;-42
2022/03/20 03:22:39;;;;;;;;;;;3.10;99.90;;;2.26;79.24;98203.97;4998679;28;19921;-43
2022/03/20 03:25:06;;;;;;;;;;;3.10;99.90;;;2.32;79.54;98221.41;4995637;28;20377;-36
2022/03/20 03:27:31;;;;;;;;;;;3.10;99.90;;;2.34;80.60;98217.06;4979381;28;19913;-41
2022/03/20 03:29:57;;;;;;;;;;;3.10;99.90;;;2.33;80.56;98225.72;4996539;28;19921;-40
2022/03/20 03:32:23;;;;;;;;;;;3.10;99.90;;;2.28;80.31;98223.97;4999673;28;19925;-36
2022/03/20 03:37:33;;;;;;;;;;;3.10;99.90;;;2.27;80.95;98222.19;4981381;28;19945;-36
2022/03/20 03:40:04;;;;;;;;;;;3.00;99.90;;;2.26;81.47;98228.28;4997663;28;20329;-38
2022/03/20 03:42:33;;;;;;;;;;;3.00;99.90;;;2.20;81.50;98217.81;4998132;28;19928;-44
2022/03/20 03:44:58;;;;;;;;;;;3.00;99.90;;;2.21;82.26;98219.56;4994808;28;19917;-38
2022/03/20 03:47:24;;;;;;;;;;;3.00;99.90;;;2.25;81.82;98217.84;4992897;28;20431;-41
2022/03/20 03:49:50;;;;;;;;;;;3.00;99.90;;;2.29;81.94;98224.81;4993747;28;19953;-38
2022/03/20 03:52:16;;;;;;;;;;;3.10;99.90;;;2.26;81.55;98220.47;4995760;28;19917;-37
2022/03/20 03:54:42;;;;;;;;;;;3.10;99.90;;;2.32;80.06;98224.00;4997301;28;19964;-40
2022/03/20 03:57:08;;;;;;;;;;;3.20;99.90;;;2.39;78.97;98225.78;4999132;28;20441;-37
2022/03/20 03:59:33;;;;;;;;;;;3.20;99.90;;;2.50;79.13;98216.34;4996293;28;19921;-37
2022/03/20 04:02:00;;;;;;;;;;;3.30;99.90;;;2.59;79.92;98218.16;4996108;28;19920;-39
2022/03/20 04:04:26;;;;;;;;;;;3.40;99.90;;;2.61;79.94;98209.47;4997336;28;19947;-37
2022/03/20 04:06:52;;;;;;;;;;;3.40;99.90;;;2.71;79.77;98219.97;4995985;28;19972;-39
2022/03/20 04:09:18;;;;;;;;;;;3.50;99.90;;;2.75;79.16;98217.41;4979444;28;20004;-40
2022/03/20 04:11:44;;;;;;;;;;;3.50;99.90;;;2.78;77.90;98222.63;4996346;28;19928;-38
2022/03/20 04:14:09;;;;;;;;;;;3.60;99.90;;;2.81;76.62;98211.34;4997873;28;19917;-40
2022/03/20 04:16:35;;;;;;;;;;;3.60;99.90;;;2.81;76.00;98211.34;4990216;28;19932;-44
2022/03/20 04:19:00;;;;;;;;;;;3.60;99.90;;;2.74;76.60;98218.25;4992404;28;19948;-37
2022/03/20 04:21:26;;;;;;;;;;;3.60;99.90;;;2.57;76.98;98207.72;4995851;28;20468;-40
2022/03/20 04:23:52;;;;;;;;;;;3.50;99.90;;;2.59;77.26;98220.75;4997906;28;20276;-39
2022/03/20 04:26:23;;;;;;;;;;;3.40;99.90;;;2.51;78.37;98219.81;4998395;28;19928;-38
2022/03/20 04:28:50;;;;;;;;;;;3.30;99.90;;;2.38;78.69;98217.09;4998795;28;20191;-39
2022/03/20 04:31:17;;;;;;;;;;;3.20;99.90;;;2.31;79.10;98220.50;4999906;28;19917;-37
2022/03/20 04:33:43;;;;;;;;;;;3.10;99.90;;;2.23;79.81;98222.19;4997817;28;19925;-39
2022/03/20 04:36:09;;;;;;;;;;;3.00;99.90;;;2.23;79.05;98223.03;4993649;28;20024;-42
2022/03/20 04:38:38;;;;;;;;;;;3.00;99.90;;;2.19;78.26;98231.69;4995762;28;19923;-36
2022/03/20 04:41:04;;;;;;;;;;;3.00;99.90;;;2.15;77.08;98224.69;4996739;28;20015;-40
2022/03/20 04:43:30;;;;;;;;;;;3.00;99.90;;;2.13;76.33;98225.53;4996956;28;19951;-37
2022/03/20 04:45:56;;;;;;;;;;;3.10;99.90;;;2.19;76.02;98225.59;4997421;28;19925;-38
2022/03/20 04:59:20;;;;;;;;;;;3.50;99.90;;;2.72;73.90;98216.50;5000483;28;20413;-37
2022/03/20 05:01:46;;;;;;;;;;;3.60;99.90;;;2.84;73.15;98234.84;4996985;28;19925;-36
2022/03/20 05:04:13;;;;;;;;;;;3.60;99.90;;;2.84;71.50;98240.91;4997668;28;19922;-43
2022/03/20 05:06:39;;;;;;;;;;;3.70;99.90;;;2.95;72.00;98234.91;4996738;28;19922;-38
2022/03/20 05:14:33;;;;;;;;;;;3.80;99.90;;;2.98;70.63;98233.19;5002259;28;19939;-40
2022/03/20 05:17:00;;;;;;;;;;;3.80;99.90;;;3.02;70.96;98231.47;4967347;28;19925;-37
2022/03/20 05:19:26;;;;;;;;;;;3.80;99.90;;;3.05;70.26;98227.16;4997584;28;20386;-39
2022/03/20 05:21:52;;;;;;;;;;;3.80;99.90;;;3.05;70.72;98248.00;4996917;28;20029;-36
2022/03/20 05:24:17;;;;;;;;;;;3.80;99.90;;;3.01;70.39;98250.56;4998895;28;19932;-36
2022/03/20 05:26:44;;;;;;;;;;;3.80;99.90;;;2.89;70.59;98233.13;5012633;23;19929;-84
2022/03/20 05:29:09;;;;;;;;;;;3.80;99.90;;;2.81;70.54;98214.81;4995966;28;20444;-84
2022/03/20 05:31:35;;;;;;;;;;;3.90;99.90;;;2.98;70.58;98240.13;4993274;28;19985;-83
2022/03/20 05:34:01;;;;;;;;;;;3.90;99.90;;;3.06;70.72;98248.88;4975985;28;20155;-84
2022/03/20 05:36:29;;;;;;;;;;;3.90;99.90;;;3.02;70.79;98245.38;4977202;28;19963;-83
2022/03/20 05:38:56;;;;;;;;;;;3.90;99.90;;;3.05;70.99;98236.69;4992667;28;19925;-84
2022/03/20 05:44:06;;;;;;;;;;;4.00;99.90;;;3.19;69.84;98236.78;4985838;28;20112;-84
2022/03/20 05:46:31;;;;;;;;;;;4.10;99.90;;;3.15;68.78;98233.28;4967582;28;19921;-84
2022/03/20 05:48:57;;;;;;;;;;;4.10;99.90;;;3.35;68.76;98259.47;4969274;28;19921;-84
2022/03/20 05:51:24;;;;;;;;;;;4.20;99.90;;;3.41;69.27;98256.91;4988732;28;20378;-84
2022/03/20 05:53:49;;;;;;;;;;;4.30;99.90;;;3.53;69.04;98253.47;4991716;28;19922;-84
2022/03/20 05:58:59;;;;;;;;;;;4.50;99.90;;;3.80;67.59;98281.44;4991160;28;20024;-84
2022/03/20 06:01:26;;;;;;;;;;;4.60;99.90;;;3.71;67.74;98247.47;4990587;28;20007;-84
2022/03/20 06:03:52;;;;;;;;;;;4.60;99.90;;;3.87;67.23;98248.41;4974081;28;19922;-84
2022/03/20 06:06:18;;;;;;;;;;;4.70;99.90;;;4.10;65.87;98263.25;4987727;28;20353;-84
2022/03/20 06:08:44;;;;;;;;;;;4.80;99.90;;;3.97;65.50;98239.75;4974258;28;19921;-83
2022/03/20 06:11:09;;;;;;;;;;;4.90;99.90;;;4.25;65.34;98278.94;4974912;28;20061;-84
2022/03/20 06:13:35;;;;;;;;;;;5.00;99.90;;;4.20;65.22;98237.19;4976149;28;19922;-84
2022/03/20 06:16:01;;;;;;;;;;;5.10;99.90;;;4.53;64.31;98258.13;4975100;28;20008;-84
2022/03/20 06:18:27;;;;;;;;;;;5.30;99.90;;;4.70;64.21;98271.19;4991096;28;19917;-83
2022/03/20 06:20:53;;;;;;;;;;;5.40;99.90;;;4.91;63.73;98273.78;4991947;28;20280;-84
2022/03/20 06:23:19;;;;;;;;;;;5.60;99.90;;;4.84;62.87;98250.28;4958500;28;19995;-83
2022/03/20 06:25:45;;;;;;;;;;;5.70;99.90;;;5.02;62.69;98255.50;4973279;28;20307;-84
2022/03/20 06:28:11;;;;;;;;;;;5.80;99.90;;;5.18;62.36;98279.88;4974284;28;19921;-84
2022/03/20 06:30:36;;;;;;;;;;;5.90;99.90;;;5.26;62.45;98282.50;4975138;28;20018;-84
2022/03/20 06:33:02;;;;;;;;;;;6.00;99.90;;;5.31;61.84;98270.25;4974148;28;19917;-84
2022/03/20 06:35:28;;;;;;;;;;;6.10;99.90;;;5.51;61.77;98289.41;4957734;28;19922;-84
2022/03/20 06:37:54;;;;;;;;;;;6.20;99.90;;;5.45;61.95;98284.19;4988394;28;19926;-84
2022/03/20 06:40:20;;;;;;;;;;;6.20;99.90;;;5.50;61.38;98292.91;4980761;28;19927;-83
2022/03/20 06:42:46;;;;;;;;;;;6.30;99.90;;;5.58;62.22;98308.59;5009545;28;20017;-84
2022/03/20 06:45:13;;;;;;;;;;;6.30;99.90;;;5.61;62.57;98305.09;4992414;28;20008;-84
2022/03/20 06:47:40;;;;;;;;;;;6.30;99.90;;;5.71;62.97;98304.19;4976044;28;19909;-84
2022/03/20 06:50:07;;;;;;;;;;;6.40;99.90;;;5.59;62.41;98275.44;4954049;28;19922;-84
2022/03/20 06:52:33;;;;;;;;;;;6.40;99.90;;;5.80;61.70;98309.41;4974012;28;19945;-83
2022/03/20 06:55:00;;;;;;;;;;;6.40;99.90;;;5.58;60.47;98290.28;4985267;28;19918;-84
2022/03/20 06:57:26;;;;;;;;;;;6.40;99.90;;;5.69;60.95;98305.97;4972556;28;20000;-84
2022/03/20 06:59:53;;;;;;;;;;;6.40;99.90;;;5.71;60.80;98309.44;4993387;28;19921;-83
2022/03/20 07:02:19;;;;;;;;;;;6.40;99.90;;;5.63;62.03;98298.97;4974452;28;19924;-84
2022/03/20 07:04:47;;;;;;;;;;;6.40;99.90;;;5.66;61.81;98309.44;4981509;28;19913;-84
2022/03/20 07:07:16;;;;;;;;;;;6.40;99.90;;;5.77;62.22;98319.00;4972313;28;19928;-84
2022/03/20 07:09:42;;;;;;;;;;;6.40;99.90;;;5.73;61.91;98310.28;4974315;28;19918;-84
2022/03/20 07:12:12;;;;;;;;;;;6.40;99.90;;;5.75;60.97;98305.91;4986413;28;20181;-84
2022/03/20 07:14:38;;;;;;;;;;;6.50;99.90;;;5.74;61.78;98305.06;4974958;28;19918;-84
2022/03/20 07:17:09;;;;;;;;;;;6.50;99.90;;;5.72;61.75;98300.69;4973999;28;20019;-84
2022/03/20 07:19:35;;;;;;;;;;;6.60;99.90;;;5.84;60.77;98318.13;4989940;28;20112;-85
2022/03/20 07:22:02;;;;;;;;;;;6.60;99.90;;;5.82;61.26;98309.41;4990990;28;19944;-84
2022/03/20 07:24:27;;;;;;;;;;;6.70;99.90;;;6.02;60.84;98325.94;4989428;28;20364;-82
2022/03/20 07:29:38;;;;;;;;;;;6.80;99.90;;;5.99;61.27;98322.44;4992037;28;19928;-82
2022/03/20 07:32:06;;;;;;;;;;;6.90;99.90;;;5.92;61.14;98311.97;4991521;28;20274;-82
2022/03/20 07:34:34;;;;;;;;;;;6.80;99.90;;;6.03;61.34;98327.69;4973693;28;20283;-82
2022/03/20 07:37:00;;;;;;;;;;;6.90;99.90;;;6.11;62.05;98332.88;4975489;28;19932;-82
2022/03/20 07:39:26;;;;;;;;;;;6.90;99.90;;;6.04;62.25;98318.94;4990188;28;19928;-82
2022/03/20 07:41:51;;;;;;;;;;;6.90;99.90;;;6.28;60.59;98359.88;4974556;28;19918;-82
2022/03/20 07:44:17;;;;;;;;;;;7.00;99.90;;;6.21;60.66;98341.56;4977576;28;19920;-82
2022/03/20 07:46:43;;;;;;;;;;;7.00;99.90;;;6.25;60.32;98343.31;4993463;28;19913;-83
2022/03/20 07:49:09;;;;;;;;;;;7.00;99.90;;;6.31;59.44;98344.13;4994000;28;19917;-83
2022/03/20 07:51:35;;;;;;;;;;;7.10;99.90;;;6.33;60.08;98340.63;4977425;28;21248;-83
2022/03/20 07:54:01;;;;;;;;;;;7.10;99.90;;;6.39;59.22;98336.25;4977178;28;19937;-83
2022/03/20 07:56:28;;;;;;;;;;;7.20;99.90;;;6.33;59.14;98312.69;4976627;28;19944;-83
2022/03/20 07:58:54;;;;;;;;;;;7.30;99.90;;;6.69;58.27;98357.91;4974529;28;20004;-83
2022/03/20 08:01:21;;;;;;;;;;;7.40;99.90;;;6.88;58.16;98353.44;4976252;28;19968;-83
2022/03/20 08:03:48;;;;;;;;;;;7.50;99.90;;;6.89;58.84;98352.53;4977903;28;20000;-82
2022/03/20 08:06:15;;;;;;;;;;;7.60;99.90;;;6.89;58.39;98331.53;4958907;28;19917;-83
2022/03/20 08:08:41;;;;;;;;;;;7.70;99.90;;;6.97;57.40;98349.88;4959778;28;19944;-82
2022/03/20 08:11:08;;;;;;;;;;;7.70;99.90;;;7.00;57.54;98337.59;4989874;28;20145;-83
2022/03/20 08:13:34;;;;;;;;;;;7.80;99.90;;;7.15;57.17;98333.13;4978086;28;20004;-82
2022/03/20 08:16:00;;;;;;;;;;;7.90;99.90;;;7.15;57.21;98320.00;4992157;28;20020;-83
2022/03/20 08:18:26;;;;;;;;;;;8.00;99.90;;;7.21;57.05;98315.56;4979379;28;19940;-83
2022/03/20 08:20:52;;;;;;;;;;;8.00;99.90;;;7.38;56.06;98344.28;4975030;28;19914;-82
2022/03/20 08:23:18;;;;;;;;;;;8.10;99.90;;;7.47;56.21;98340.69;4976829;28;19917;-82
2022/03/20 08:25:44;;;;;;;;;;;8.20;99.90;;;7.59;56.44;98352.81;4959358;28;20011;-82
2022/03/20 08:28:11;;;;;;;;;;;8.30;99.90;;;7.63;55.86;98351.94;4994070;28;19917;-83
2022/03/20 08:30:39;;;;;;;;;;;8.30;99.70;;;7.79;55.79;98358.75;4972570;28;19968;-83
2022/03/20 08:33:05;;;;;;;;;;;8.40;99.60;;;7.77;55.23;98333.38;4992673;28;19922;-83
2022/03/20 08:35:31;;;;;;;;;;;8.50;99.20;;;7.98;54.53;98353.28;4974954;28;20178;-83
2022/03/20 08:37:56;;;;;;;;;;;8.60;98.90;;;7.98;54.01;98350.66;4989456;28;19991;-83
2022/03/20 08:40:23;;;;;;;;;;;8.60;98.50;;;8.05;54.54;98362.84;4979084;28;20453;-82
2022/03/20 08:42:53;;;;;;;;;;;8.70;98.80;;;8.19;53.86;98371.44;4991729;28;19999;-86
2022/03/20 08:45:20;;;;;;;;;;;8.70;98.40;;;8.30;54.16;98380.97;4974924;28;19922;-85
2022/03/20 08:47:47;;;;;;;;;;;8.90;98.60;;;8.19;54.31;98345.16;4994614;28;19920;-82
2022/03/20 08:50:14;;;;;;;;;;;9.00;98.70;;;8.36;53.78;98371.25;4984362;28;19960;-83
2022/03/20 08:52:41;;;;;;;;;;;9.00;98.40;;;8.54;53.59;98382.44;5016300;28;19926;-82
2022/03/20 08:55:11;;;;;;;;;;;9.10;98.10;;;8.70;53.34;98391.00;4999648;28;20016;-86
2022/03/20 08:57:37;;;;;;;;;;;9.20;98.10;;;8.70;52.39;98373.44;4995844;28;20374;-86
2022/03/20 09:00:04;;;;;;;;;;;9.30;97.40;;;8.64;52.57;98347.25;4991356;28;20440;-85
2022/03/20 09:02:29;;;;;;;;;;;9.50;97.40;;;9.05;53.40;98379.97;4980840;28;19909;-85
2022/03/20 09:04:55;;;;;;;;;;;9.60;97.50;;;9.11;50.76;98371.97;4993124;28;19914;-87
2022/03/20 09:07:20;;;;;;;;;;;9.70;96.90;;;9.36;49.58;98384.75;4994772;28;19917;-85
2022/03/20 09:09:46;;;;;;;;;;;9.90;95.60;;;9.33;49.87;98364.63;4989046;28;19945;-85
2022/03/20 09:12:12;;;;;;;;;;;10.00;95.60;;;9.47;49.56;98367.00;4975739;28;20421;-85
2022/03/20 09:14:37;;;;;;;;;;;10.10;95.30;;;9.46;48.64;98365.28;4992579;28;20004;-86
2022/03/20 09:19:47;;;;;;;;;;;10.30;94.80;;;9.78;49.41;98386.66;4990179;28;19940;-85
2022/03/20 09:22:16;;;;;;;;;;;10.30;95.00;;;9.80;49.03;98367.31;4979569;28;20363;-86
2022/03/20 09:24:41;;;;;;;;;;;10.50;94.60;;;9.98;47.99;98374.00;4993791;28;19909;-85
2022/03/20 09:27:07;;;;;;;;;;;10.70;94.40;;;10.09;47.79;98364.13;4976232;28;19955;-85
2022/03/20 09:29:33;;;;;;;;;;;10.80;93.70;;;10.28;47.13;98369.03;4975505;28;19917;-85
2022/03/20 09:31:58;;;;;;;;;;;10.90;93.30;;;10.44;46.53;98381.03;4973238;28;19921;-85
2022/03/20 09:34:24;;;;;;;;;;;11.10;92.60;;;10.58;46.22;98380.75;4974434;28;19917;-85
2022/03/20 09:36:50;;;;;;;;;;;11.20;92.60;;;10.78;45.67;98404.03;4998240;28;19909;-85
2022/03/20 09:39:15;;;;;;;;;;;11.30;91.70;;;10.94;45.89;98401.09;4992250;28;19972;-86
2022/03/20 09:41:41;;;;;;;;;;;11.50;91.90;;;11.11;46.04;98405.97;4998242;28;19914;-85
2022/03/20 09:44:07;;;;;;;;;;;11.60;92.00;;;11.36;45.30;98412.44;4975113;28;19957;-85
2022/03/20 09:46:34;;;;;;;;;;;11.90;91.60;;;11.54;44.94;98397.00;4975720;28;20363;-85
2022/03/20 09:49:01;;;;;;;;;;;12.20;91.10;;;11.83;44.49;98406.88;4995752;28;19918;-85
2022/03/20 09:51:27;;;;;;;;;;;12.40;90.60;;;12.09;43.66;98385.03;4996778;28;19937;-86
2022/03/20 09:53:52;;;;;;;;;;;12.80;90.00;;;12.44;43.59;98388.50;4990104;28;20302;-85
2022/03/20 09:56:18;;;;;;;;;;;13.20;88.10;;;12.87;43.55;98383.72;4973854;28;19913;-85
2022/03/20 09:58:43;;;;;;;;;;;13.60;88.20;;;13.20;41.95;98373.84;4994847;28;19918;-86
2022/03/20 10:01:09;;;;;;;;;;;14.00;87.20;;;13.56;41.18;98390.34;4995633;28;19944;-85
2022/03/20 10:03:35;;;;;;;;;;;14.30;84.50;;;13.87;41.09;98399.03;4959203;28;19925;-86
2022/03/20 10:06:17;;;;;;;;;;;14.60;83.70;;;13.92;41.52;98416.53;4980614;28;20339;-86
2022/03/20 10:09:04;;;;;;;;;;;14.60;83.40;;;13.89;40.83;98410.47;4994670;28;19917;-86
2022/03/20 10:11:30;;;;;;;;;;;14.60;82.10;;;13.92;41.17;98427.13;4994966;28;19925;-86
2022/03/20 10:14:06;;;;;;;;;;;14.60;81.50;;;13.93;41.98;98426.22;4981666;28;19916;-85
2022/03/20 10:16:33;;;;;;;;;;;14.50;81.90;;;13.66;42.33;98435.97;4978484;28;20488;-85
2022/03/20 10:18:58;;;;;;;;;;;14.40;81.90;;;13.58;42.23;98405.34;4985595;28;19917;-86
2022/03/20 10:21:47;;;;;;;;;;;14.30;82.30;;;13.67;41.72;98423.59;4994161;28;20208;-85
2022/03/20 10:24:17;;;;;;;;;;;14.40;81.80;;;14.04;42.49;98427.66;4970432;28;19924;-85
2022/03/20 10:26:43;;;;;;;;;;;14.50;83.10;;;14.00;42.22;98402.13;4962469;28;19953;-86
2022/03/20 10:29:17;;;;;;;;;;;14.80;82.70;;;14.26;41.35;98423.31;4995340;28;19960;-85
2022/03/20 10:31:50;;;;;;;;;;;14.90;81.10;;;14.29;40.88;98425.00;4993828;28;20499;-86
2022/03/20 10:34:17;;;;;;;;;;;15.00;80.00;;;14.44;41.06;98403.19;4994208;28;20232;-87
2022/03/20 10:36:43;;;;;;;;;;;15.10;79.80;;;14.52;41.01;98398.50;4992732;28;19914;-85
2022/03/20 10:39:19;;;;;;;;;;;15.20;80.00;;;14.64;41.28;98407.84;4991781;28;19999;-85
2022/03/20 10:41:45;;;;;;;;;;;15.40;81.00;;;15.02;41.12;98437.38;4982725;28;19920;-86
2022/03/20 10:44:16;;;;;;;;;;;15.60;80.20;;;15.11;40.66;98424.66;4974177;28;19972;-85
2022/03/20 10:46:43;;;;;;;;;;;15.60;79.40;;;15.07;39.85;98402.66;4979517;28;19914;-86
2022/03/20 10:49:11;;;;;;;;;;;15.80;77.90;;;15.38;39.37;98431.56;4993337;28;20328;-85
2022/03/20 10:51:43;;;;;;;;;;;15.80;76.30;;;15.39;40.01;98429.75;4960316;28;19910;-85
2022/03/20 10:54:20;;;;;;;;;;;15.80;76.60;;;15.42;40.53;98425.19;4974584;28;19917;-85
2022/03/20 10:56:57;;;;;;;;;;;15.90;77.70;;;15.31;41.04;98410.56;4975773;28;19960;-88
2022/03/20 10:59:24;;;;;;;;;;;16.00;78.60;;;15.36;41.13;98429.84;4975740;28;19921;-85
2022/03/20 11:01:50;;;;;;;;;;;15.90;78.30;;;15.36;40.30;98404.16;4975893;28;19917;-85
2022/03/20 11:04:16;;;;;;;;;;;16.00;77.40;;;15.35;40.46;98426.34;5002813;28;19985;-87
2022/03/20 11:06:46;;;;;;;;;;;16.10;77.10;;;15.66;41.08;98427.75;5016697;28;19914;-86
2022/03/20 11:09:12;;;;;;;;;;;16.20;77.60;;;15.73;40.16;98401.78;4964015;28;19976;-86
2022/03/20 11:11:44;;;;;;;;;;;16.30;76.40;;;16.00;39.62;98424.56;4972180;28;19914;-86
2022/03/20 11:14:13;;;;;;;;;;;16.50;75.50;;;16.00;38.58;98397.13;4989028;28;19918;-85
2022/03/20 11:16:41;;;;;;;;;;;16.60;74.40;;;15.96;39.10;98406.16;4997379;28;19918;-86
2022/03/20 11:19:11;;;;;;;;;;;16.60;73.90;;;15.83;39.66;98427.97;4993826;28;19922;-86
2022/03/20 11:21:39;;;;;;;;;;;16.50;75.50;;;15.54;39.00;98391.03;4974665;28;20060;-85
2022/03/20 11:24:05;;;;;;;;;;;16.40;73.50;;;15.65;39.39;98416.25;4995829;28;19943;-85
2022/03/20 11:26:32;;;;;;;;;;;16.30;73.80;;;15.67;40.45;98408.22;4995712;28;20359;-87
2022/03/20 11:29:01;;;;;;;;;;;16.30;74.80;;;15.75;39.63;98406.13;4979931;28;19959;-86
2022/03/20 11:31:27;;;;;;;;;;;16.40;74.20;;;15.98;39.56;98414.94;4966030;28;19936;-85
2022/03/20 11:33:55;;;;;;;;;;;16.50;73.50;;;16.17;38.97;98391.06;4978389;28;20119;-87
2022/03/20 11:36:21;;;;;;;;;;;16.70;73.60;;;16.54;38.12;98416.91;4992877;28;19957;-85
2022/03/20 11:39:10;;;;;;;;;;;17.00;72.10;;;16.74;38.38;98396.50;4997829;28;19960;-87
2022/03/20 11:41:36;;;;;;;;;;;17.30;71.70;;;16.90;37.25;98410.84;4979716;28;20389;-85
2022/03/20 11:44:22;;;;;;;;;;;17.60;70.50;;;17.09;37.59;98389.56;4974634;28;20004;-85
2022/03/20 11:47:16;;;;;;;;;;;17.80;69.60;;;17.12;36.88;98401.84;4978509;28;20017;-88
2022/03/20 11:49:42;;;;;;;;;;;17.80;68.00;;;16.79;37.35;98379.34;4993510;28;20283;-86
2022/03/20 11:52:12;;;;;;;;;;;17.70;68.40;;;16.73;37.83;98389.44;4977762;28;19921;-86
2022/03/20 11:54:40;;;;;;;;;;;17.60;68.60;;;16.74;38.15;98396.50;4973164;28;19910;-85
2022/03/20 11:57:28;;;;;;;;;;;17.40;70.20;;;16.64;38.08;98400.53;4995300;28;20016;-85
2022/03/20 11:59:55;;;;;;;;;;;17.30;69.00;;;16.27;37.66;98397.69;4997780;28;19933;-87
2022/03/20 12:02:25;;;;;;;;;;;17.00;67.60;;;15.96;38.74;98395.53;4952355;28;19914;-85